Dillant Hopkins Airport Keene US
ICAO: KEEN
IATA: EEN
Category: Medium
Scheduled Services: No

Elevation: 488 ft
TransAlt. 18000 ft.

Airport Communications:
AWOS 3:119.025
BOSTON CNTR:123.75
BANGOR RDO:109.4
CTAF/UNICOM:123

KEEN Zoom In..

Runways:

(A) RW 02 length 6201 ft width 100 ft
ILS 108.90 / hdg 18

(B) RW 14 length 4001 ft width 150 ft
---- / hdg 142

(C) RW 20 length 6201 ft width 100 ft
---- / hdg 198

(D) RW 32 length 4001 ft width 150 ft
---- / hdg 322

Location; KEEN
Day. 22 / Time. 23.56 Zulu
* Altimeter: 30.23
* Temperature: -01° c. -30.2°f.
* Wind from: 340° Speed 05 kn.
Dewpoint: -02° c.
Visibility: 10 Statute Miles.
Clouds: Overcast 1300 ft.

KEEN 222356Z AUTO 34005KT 10SM UP OVC013 M01/M02 A3023 RMK AO2 UPB09E23B47 SLP258 P0000 60000 T10061022 10022 21006 50001 FZRANO


Wind From 340°
Speed 05 kn.

YouTube Music Video
 
jpsmedia.com for Web Design  worldairports.se 2018   terms of use